createdAt,value
2022-10-14T00:01:43.181Z,11.79
2022-10-14T00:04:09.625Z,11.80
2022-10-14T00:06:36.024Z,11.80
2022-10-14T00:09:06.788Z,11.73
2022-10-14T00:11:34.819Z,11.78
2022-10-14T00:14:04.499Z,11.79
2022-10-14T00:16:34.153Z,11.82
2022-10-14T00:19:00.815Z,11.79
2022-10-14T00:21:28.392Z,11.87
2022-10-14T00:23:54.809Z,11.74
2022-10-14T00:26:26.706Z,11.86
2022-10-14T00:28:53.821Z,11.84
2022-10-14T00:31:20.615Z,11.86
2022-10-14T00:33:47.503Z,11.88
2022-10-14T00:36:16.216Z,11.88
2022-10-14T00:38:42.941Z,11.98
2022-10-14T00:41:13.356Z,12.07
2022-10-14T00:44:26.434Z,11.98
2022-10-14T00:46:53.563Z,12.01
2022-10-14T00:49:27.810Z,12.07
2022-10-14T00:51:58.380Z,12.11
2022-10-14T00:54:31.326Z,12.15
2022-10-14T00:56:57.995Z,12.21
2022-10-14T00:59:24.834Z,12.07
2022-10-14T01:01:51.437Z,12.09
2022-10-14T01:04:17.877Z,12.16
2022-10-14T01:07:03.487Z,12.32
2022-10-14T01:09:51.621Z,12.44
2022-10-14T01:12:32.987Z,12.61
2022-10-14T01:15:11.158Z,12.74
2022-10-14T01:18:01.887Z,12.86
2022-10-14T01:20:45.371Z,12.92
2022-10-14T01:23:36.830Z,12.97
2022-10-14T01:26:21.643Z,12.97
2022-10-14T01:29:18.727Z,13.04
2022-10-14T01:31:50.070Z,12.99
2022-10-14T01:34:25.367Z,13.01
2022-10-14T01:37:00.036Z,13.08
2022-10-14T01:39:31.714Z,12.97
2022-10-14T01:42:07.023Z,13.04
2022-10-14T01:44:38.933Z,13.07
2022-10-14T01:47:06.649Z,13.05
2022-10-14T01:49:38.824Z,13.08
2022-10-14T01:52:28.482Z,13.13
2022-10-14T01:54:59.059Z,13.09
2022-10-14T01:57:29.898Z,13.08
2022-10-14T01:59:57.238Z,13.00
2022-10-14T02:02:24.778Z,13.01
2022-10-14T02:04:51.662Z,13.00
2022-10-14T02:07:57.620Z,13.00
2022-10-14T02:11:02.385Z,13.04
2022-10-14T02:13:38.138Z,13.00
2022-10-14T02:16:17.536Z,13.06
2022-10-14T02:18:52.819Z,13.02
2022-10-14T02:21:43.264Z,12.99
2022-10-14T02:24:20.047Z,13.00
2022-10-14T02:26:49.022Z,12.99
2022-10-14T02:29:18.889Z,12.97
2022-10-14T02:31:46.375Z,12.94
2022-10-14T02:34:17.923Z,13.00
2022-10-14T02:36:46.109Z,12.99
2022-10-14T02:39:16.103Z,13.00
2022-10-14T02:41:42.803Z,12.95
2022-10-14T02:44:09.330Z,13.04
2022-10-14T02:46:36.103Z,13.04
2022-10-14T02:49:02.508Z,12.97
2022-10-14T02:51:28.914Z,13.03
2022-10-14T02:53:57.400Z,12.93
2022-10-14T02:56:24.290Z,12.88
2022-10-14T02:58:50.759Z,12.94
2022-10-14T03:01:17.255Z,12.99
2022-10-14T03:03:43.743Z,12.99
2022-10-14T03:06:10.182Z,12.95
2022-10-14T03:08:36.721Z,12.98
2022-10-14T03:11:03.100Z,12.91
2022-10-14T03:13:30.455Z,12.94
2022-10-14T03:15:56.948Z,12.98
2022-10-14T03:18:23.339Z,13.04
2022-10-14T03:20:49.873Z,13.06
2022-10-14T03:23:16.493Z,12.94
2022-10-14T03:25:45.947Z,13.00
2022-10-14T03:28:13.183Z,12.97
2022-10-14T03:30:39.835Z,12.94
2022-10-14T03:33:06.272Z,12.97
2022-10-14T03:35:32.886Z,12.89
2022-10-14T03:38:02.314Z,12.92
2022-10-14T03:40:29.461Z,12.81
2022-10-14T03:43:00.932Z,12.69
2022-10-14T03:45:28.497Z,12.74
2022-10-14T03:47:55.617Z,12.60
2022-10-14T03:50:22.488Z,12.73
2022-10-14T03:52:52.137Z,12.55
2022-10-14T03:55:21.850Z,12.69
2022-10-14T03:57:48.427Z,12.66
2022-10-14T04:00:15.379Z,12.76
2022-10-14T04:02:42.320Z,12.72
2022-10-14T04:05:09.259Z,12.72
2022-10-14T04:07:35.747Z,12.83
2022-10-14T04:10:02.207Z,12.64
2022-10-14T04:12:28.606Z,12.66
2022-10-14T04:14:57.029Z,12.62
2022-10-14T04:17:24.803Z,12.70
2022-10-14T04:19:52.023Z,12.62
2022-10-14T04:22:19.714Z,12.65
2022-10-14T04:24:46.327Z,12.54
2022-10-14T04:27:12.840Z,12.53
2022-10-14T04:29:39.373Z,12.53
2022-10-14T04:32:05.846Z,12.60
2022-10-14T04:34:32.238Z,12.52
2022-10-14T04:36:58.632Z,12.62
2022-10-14T04:39:25.186Z,12.53
2022-10-14T04:41:51.599Z,12.54
2022-10-14T04:44:18.060Z,12.67
2022-10-14T04:46:44.414Z,12.64
2022-10-14T04:49:12.593Z,12.59
2022-10-14T04:51:39.016Z,12.59
2022-10-14T04:54:06.288Z,12.66
2022-10-14T04:56:32.746Z,12.59
2022-10-14T04:58:59.154Z,12.65
2022-10-14T05:01:28.057Z,12.67
2022-10-14T05:03:56.671Z,12.71
2022-10-14T05:06:23.314Z,12.72
2022-10-14T05:08:49.686Z,12.69
2022-10-14T05:11:16.182Z,12.68
2022-10-14T05:13:42.607Z,12.67
2022-10-14T05:16:09.205Z,12.64
2022-10-14T05:18:35.660Z,12.70
2022-10-14T05:21:02.265Z,12.68
2022-10-14T05:23:28.727Z,12.51
2022-10-14T05:25:55.165Z,12.59
2022-10-14T05:28:21.629Z,12.62
2022-10-14T05:30:48.138Z,12.57
2022-10-14T05:33:14.659Z,12.46
2022-10-14T05:35:58.125Z,12.59
2022-10-14T05:38:25.575Z,12.61
2022-10-14T05:40:54.253Z,12.59
2022-10-14T05:43:21.434Z,12.60
2022-10-14T05:45:47.963Z,12.56
2022-10-14T05:48:14.330Z,12.61
2022-10-14T05:50:42.206Z,12.62
2022-10-14T05:53:08.803Z,12.69
2022-10-14T05:55:35.326Z,12.62
2022-10-14T05:58:02.073Z,12.66
2022-10-14T06:00:28.569Z,12.65
2022-10-14T06:02:57.876Z,12.64
2022-10-14T06:05:24.935Z,12.65
2022-10-14T06:07:51.500Z,12.61
2022-10-14T06:10:18.132Z,12.74
2022-10-14T06:12:44.551Z,12.76
2022-10-14T06:15:11.088Z,12.79
2022-10-14T06:17:37.584Z,12.77
2022-10-14T06:20:04.149Z,12.71
2022-10-14T06:22:30.773Z,12.89
2022-10-14T06:25:00.498Z,12.76
2022-10-14T06:27:30.360Z,12.89
2022-10-14T06:29:56.899Z,12.81
2022-10-14T06:32:23.651Z,12.90
2022-10-14T06:34:50.356Z,12.77
2022-10-14T06:37:16.707Z,13.00
2022-10-14T06:39:45.046Z,12.95
2022-10-14T06:42:13.186Z,13.02
2022-10-14T06:44:39.959Z,12.98
2022-10-14T06:47:07.480Z,13.04
2022-10-14T06:49:34.153Z,13.13
2022-10-14T06:52:00.584Z,13.20
2022-10-14T06:54:27.003Z,13.25
2022-10-14T06:56:53.402Z,13.14
2022-10-14T06:59:19.892Z,13.30
2022-10-14T07:01:46.404Z,13.48
2022-10-14T07:04:12.870Z,13.55
2022-10-14T07:06:39.377Z,13.65
2022-10-14T07:09:05.824Z,13.76
2022-10-14T07:11:32.297Z,13.87
2022-10-14T07:13:59.335Z,13.60
2022-10-14T07:16:26.496Z,13.46
2022-10-14T07:18:52.864Z,13.65
2022-10-14T07:21:19.587Z,13.66
2022-10-14T07:23:46.571Z,13.62
2022-10-14T07:26:13.139Z,13.58
2022-10-14T07:28:39.573Z,13.58
2022-10-14T07:31:11.175Z,13.55
2022-10-14T07:33:39.246Z,13.67
2022-10-14T07:36:10.067Z,13.80
2022-10-14T07:38:37.035Z,13.59
2022-10-14T07:41:16.798Z,13.64
2022-10-14T07:43:45.070Z,13.72
2022-10-14T07:46:12.733Z,13.63
2022-10-14T07:48:52.690Z,13.58
2022-10-14T07:51:23.003Z,13.76
2022-10-14T07:53:50.147Z,13.59
2022-10-14T07:56:16.555Z,13.65
2022-10-14T07:58:44.574Z,13.68
2022-10-14T08:01:11.284Z,13.65
2022-10-14T08:03:37.703Z,13.80
2022-10-14T08:06:05.345Z,13.56
2022-10-14T08:08:31.770Z,13.66
2022-10-14T08:11:19.681Z,13.51
2022-10-14T08:13:46.737Z,13.39
2022-10-14T08:16:16.100Z,13.59
2022-10-14T08:18:43.018Z,13.63
2022-10-14T08:21:09.426Z,13.69
2022-10-14T08:23:35.850Z,14.01
2022-10-14T08:26:02.322Z,14.25
2022-10-14T08:28:28.807Z,14.43
2022-10-14T08:30:55.395Z,14.85
2022-10-14T08:33:21.980Z,14.29
2022-10-14T08:35:53.079Z,14.30
2022-10-14T08:38:25.053Z,14.43
2022-10-14T08:41:13.116Z,14.89
2022-10-14T08:44:07.933Z,14.70
2022-10-14T08:46:51.039Z,14.53
2022-10-14T08:49:31.619Z,14.70
2022-10-14T08:52:06.807Z,14.71
2022-10-14T08:54:47.553Z,14.51
2022-10-14T08:57:20.775Z,14.72
2022-10-14T08:59:47.363Z,14.52
2022-10-14T09:02:35.681Z,14.79
2022-10-14T09:05:03.443Z,14.81
2022-10-14T09:07:33.168Z,14.56
2022-10-14T09:10:06.964Z,14.57
2022-10-14T09:12:35.789Z,14.45
2022-10-14T09:15:12.125Z,14.29
2022-10-14T09:17:45.668Z,14.64
2022-10-14T09:20:25.235Z,14.68
2022-10-14T09:23:17.989Z,14.47
2022-10-14T09:25:50.679Z,14.49
2022-10-14T09:28:19.349Z,14.78
2022-10-14T09:30:45.871Z,15.11
2022-10-14T09:33:18.613Z,15.67
2022-10-14T09:35:45.650Z,15.87
2022-10-14T09:38:13.606Z,15.52
2022-10-14T09:40:45.450Z,15.66
2022-10-14T09:43:16.647Z,16.17
2022-10-14T09:45:57.523Z,15.97
2022-10-14T09:48:40.266Z,16.56
2022-10-14T09:51:22.056Z,16.48
2022-10-14T09:53:52.386Z,16.48
2022-10-14T09:56:30.844Z,17.47
2022-10-14T09:58:58.436Z,16.35
2022-10-14T10:01:27.599Z,16.28
2022-10-14T10:03:55.777Z,16.62
2022-10-14T10:06:25.804Z,16.37
2022-10-14T10:08:55.342Z,16.20
2022-10-14T10:11:38.183Z,15.56
2022-10-14T10:14:23.075Z,16.17
2022-10-14T10:16:52.070Z,16.15
2022-10-14T10:19:21.185Z,16.21
2022-10-14T10:21:47.692Z,17.55
2022-10-14T10:24:25.990Z,17.53
2022-10-14T10:26:55.153Z,16.78
2022-10-14T10:29:31.754Z,17.05
2022-10-14T10:32:06.747Z,18.04
2022-10-14T10:34:56.497Z,18.52
2022-10-14T10:37:28.070Z,18.93
2022-10-14T10:40:21.565Z,18.90
2022-10-14T10:43:03.742Z,18.45
2022-10-14T10:45:48.891Z,18.05
2022-10-14T10:48:55.476Z,18.17
2022-10-14T10:51:31.758Z,18.29
2022-10-14T10:54:13.243Z,18.17
2022-10-14T10:56:52.743Z,17.66
2022-10-14T10:59:24.988Z,17.23
2022-10-14T11:02:00.970Z,17.37
2022-10-14T11:04:45.239Z,17.39
2022-10-14T11:08:08.959Z,16.84
2022-10-14T11:11:22.831Z,17.91
2022-10-14T11:13:56.491Z,17.53
2022-10-14T11:16:34.875Z,17.42
2022-10-14T11:19:14.602Z,17.08
2022-10-14T11:22:04.646Z,17.04
2022-10-14T11:24:39.697Z,16.71
2022-10-14T11:27:27.689Z,16.43
2022-10-14T11:30:13.693Z,16.68
2022-10-14T11:33:11.208Z,16.51
2022-10-14T11:36:22.557Z,16.89
2022-10-14T11:39:03.995Z,16.58
2022-10-14T11:41:59.048Z,16.39
2022-10-14T11:44:38.655Z,16.45
2022-10-14T11:47:15.838Z,16.36
2022-10-14T11:49:58.842Z,16.96
2022-10-14T11:52:32.708Z,16.79
2022-10-14T11:55:13.759Z,16.53
2022-10-14T11:57:45.253Z,16.54
2022-10-14T12:00:37.728Z,16.62
2022-10-14T12:03:38.194Z,16.80
2022-10-14T12:06:13.418Z,16.40
2022-10-14T12:08:50.273Z,16.35
2022-10-14T12:11:28.448Z,16.44
2022-10-14T12:14:05.435Z,16.32
2022-10-14T12:16:33.183Z,16.60
2022-10-14T12:18:59.984Z,17.05
2022-10-14T12:21:49.791Z,17.14
2022-10-14T12:24:21.050Z,17.92
2022-10-14T12:26:55.177Z,17.56
2022-10-14T12:29:25.119Z,17.92
2022-10-14T12:32:07.158Z,17.31
2022-10-14T12:34:41.726Z,17.29
2022-10-14T12:37:35.243Z,17.25
2022-10-14T12:40:02.101Z,17.16
2022-10-14T12:42:34.882Z,16.88
2022-10-14T12:45:14.235Z,16.53
2022-10-14T12:47:41.357Z,16.64
2022-10-14T12:50:17.666Z,16.64
2022-10-14T12:52:47.050Z,16.46
2022-10-14T12:55:18.537Z,16.36
2022-10-14T12:58:02.833Z,16.66
2022-10-14T13:00:34.051Z,16.72
2022-10-14T13:03:03.200Z,16.80
2022-10-14T13:05:29.685Z,16.93
2022-10-14T13:08:20.681Z,16.50
2022-10-14T13:10:53.587Z,16.77
2022-10-14T13:13:38.586Z,16.65
2022-10-14T13:16:06.551Z,16.86
2022-10-14T13:18:39.120Z,17.00
2022-10-14T13:21:07.773Z,16.78
2022-10-14T13:23:43.180Z,16.76
2022-10-14T13:26:18.564Z,16.58
2022-10-14T13:28:49.682Z,16.62
2022-10-14T13:31:26.696Z,16.44
2022-10-14T13:34:01.632Z,16.93
2022-10-14T13:36:37.609Z,17.45
2022-10-14T13:39:05.030Z,17.33
2022-10-14T13:41:34.553Z,16.95
2022-10-14T13:44:02.429Z,17.17
2022-10-14T13:46:37.504Z,17.15
2022-10-14T13:49:06.847Z,17.20
2022-10-14T13:51:44.954Z,17.22
2022-10-14T13:54:11.368Z,17.18
2022-10-14T13:56:37.895Z,17.24
2022-10-14T13:59:39.242Z,17.36
2022-10-14T14:02:14.234Z,17.58
2022-10-14T14:04:43.507Z,17.56
2022-10-14T14:07:58.967Z,17.59
2022-10-14T14:10:09.340Z,17.36
2022-10-14T14:12:35.884Z,16.93
2022-10-14T14:15:02.551Z,16.84
2022-10-14T14:17:33.286Z,17.03
2022-10-14T14:19:59.862Z,16.88
2022-10-14T14:22:28.895Z,16.67
2022-10-14T14:25:40.230Z,16.64
2022-10-14T14:28:07.056Z,16.78
2022-10-14T14:30:38.813Z,16.59
2022-10-14T14:33:13.292Z,16.47
2022-10-14T14:35:43.734Z,16.69
2022-10-14T14:38:35.265Z,16.67
2022-10-14T14:41:14.652Z,16.50
2022-10-14T14:43:47.313Z,16.65
2022-10-14T14:46:40.813Z,16.56
2022-10-14T14:49:08.585Z,16.41
2022-10-14T14:51:39.100Z,16.28
2022-10-14T14:54:07.427Z,16.30
2022-10-14T14:56:41.097Z,16.32
2022-10-14T14:59:23.373Z,16.08
2022-10-14T15:01:50.174Z,16.22
2022-10-14T15:04:19.525Z,16.37
2022-10-14T15:07:20.093Z,16.12
2022-10-14T15:09:54.692Z,16.29
2022-10-14T15:12:34.232Z,16.39
2022-10-14T15:15:02.308Z,16.23
2022-10-14T15:17:44.782Z,16.38
2022-10-14T15:20:11.158Z,16.31
2022-10-14T15:22:39.908Z,16.55
2022-10-14T15:25:12.090Z,16.26
2022-10-14T15:27:41.745Z,16.26
2022-10-14T15:30:19.803Z,16.52
2022-10-14T15:32:47.245Z,16.15
2022-10-14T15:35:15.255Z,16.23
2022-10-14T15:37:41.923Z,16.20
2022-10-14T15:40:14.333Z,16.17
2022-10-14T15:42:41.002Z,16.22
2022-10-14T15:45:08.372Z,16.16
2022-10-14T15:47:35.853Z,16.14
2022-10-14T15:50:08.063Z,16.27
2022-10-14T15:52:34.592Z,16.35
2022-10-14T15:55:01.079Z,16.22
2022-10-14T15:57:27.442Z,16.09
2022-10-14T15:59:54.553Z,16.19
2022-10-14T16:02:35.862Z,15.91
2022-10-14T16:07:49.267Z,16.06
2022-10-14T16:10:18.723Z,16.13
2022-10-14T16:12:45.440Z,15.86
2022-10-14T16:15:42.989Z,15.90
2022-10-14T16:18:09.535Z,15.61
2022-10-14T16:20:35.989Z,15.23
2022-10-14T16:23:04.677Z,15.10
2022-10-14T16:25:43.950Z,14.88
2022-10-14T16:28:11.735Z,14.84
2022-10-14T16:30:41.010Z,14.70
2022-10-14T16:33:07.733Z,14.34
2022-10-14T16:35:34.151Z,14.52
2022-10-14T16:38:00.531Z,14.63
2022-10-14T16:40:26.974Z,14.67
2022-10-14T16:42:53.530Z,14.70
2022-10-14T16:45:19.963Z,14.71
2022-10-14T16:47:46.450Z,14.75
2022-10-14T16:50:13.459Z,14.67
2022-10-14T16:53:00.863Z,14.67
2022-10-14T16:55:30.782Z,14.77
2022-10-14T16:57:57.219Z,14.77
2022-10-14T17:00:23.891Z,14.89
2022-10-14T17:02:50.320Z,14.88
2022-10-14T17:05:17.617Z,14.71
2022-10-14T17:07:43.982Z,14.85
2022-10-14T17:10:10.931Z,14.81
2022-10-14T17:12:37.938Z,14.78
2022-10-14T17:15:05.638Z,14.76
2022-10-14T17:17:32.592Z,14.83
2022-10-14T17:19:59.053Z,14.81
2022-10-14T17:22:25.733Z,14.81
2022-10-14T17:24:52.481Z,14.81
2022-10-14T17:27:22.381Z,14.80
2022-10-14T17:29:48.791Z,14.81
2022-10-14T17:32:15.194Z,14.81
2022-10-14T17:34:41.588Z,14.79
2022-10-14T17:39:35.837Z,14.78
2022-10-14T17:42:02.198Z,14.73
2022-10-14T17:44:28.920Z,14.72
2022-10-14T17:46:55.442Z,14.71
2022-10-14T17:49:21.989Z,14.73
2022-10-14T17:51:48.680Z,14.64
2022-10-14T17:54:15.107Z,14.68
2022-10-14T17:56:41.569Z,14.57
2022-10-14T17:59:11.985Z,14.60
2022-10-14T18:04:25.222Z,14.47
2022-10-14T18:06:52.796Z,14.59
2022-10-14T18:09:19.294Z,14.51
2022-10-14T18:14:34.042Z,14.53
2022-10-14T18:17:01.011Z,14.50
2022-10-14T18:19:27.703Z,14.49
2022-10-14T18:21:54.208Z,14.48
2022-10-14T18:24:20.619Z,14.47
2022-10-14T18:26:49.836Z,14.49
2022-10-14T18:29:16.501Z,14.48
2022-10-14T18:31:43.042Z,14.38
2022-10-14T18:34:11.276Z,14.48
2022-10-14T18:36:38.237Z,14.51
2022-10-14T18:39:08.221Z,14.53
2022-10-14T18:41:37.362Z,14.50
2022-10-14T18:44:05.445Z,14.51
2022-10-14T18:46:34.187Z,14.49
2022-10-14T18:49:01.948Z,14.54
2022-10-14T18:51:31.157Z,14.50
2022-10-14T18:54:00.135Z,14.56
2022-10-14T18:56:29.781Z,14.52
2022-10-14T19:01:29.125Z,14.51
2022-10-14T19:03:56.003Z,14.62
2022-10-14T19:06:23.691Z,14.62
2022-10-14T19:08:52.048Z,14.62
2022-10-14T19:11:20.955Z,14.62
2022-10-14T19:13:50.079Z,14.64
2022-10-14T19:16:17.715Z,14.57
2022-10-14T19:18:44.781Z,14.58
2022-10-14T19:21:14.139Z,14.64
2022-10-14T19:23:45.135Z,14.59
2022-10-14T19:26:19.934Z,14.55
2022-10-14T19:28:46.500Z,14.54
2022-10-14T19:31:28.121Z,14.56
2022-10-14T19:33:55.873Z,14.56
2022-10-14T19:36:24.585Z,14.57
2022-10-14T19:38:59.637Z,14.54
2022-10-14T19:41:28.471Z,14.49
2022-10-14T19:43:57.129Z,14.43
2022-10-14T19:46:27.296Z,14.52
2022-10-14T19:49:02.321Z,14.51
2022-10-14T19:51:29.595Z,14.22
2022-10-14T19:53:57.273Z,14.50
2022-10-14T19:56:25.319Z,14.49
2022-10-14T19:58:54.213Z,14.48
2022-10-14T20:01:25.795Z,14.48
2022-10-14T20:03:52.985Z,14.40
2022-10-14T20:06:20.522Z,14.44
2022-10-14T20:08:47.079Z,14.48
2022-10-14T20:11:16.361Z,14.50
2022-10-14T20:13:45.828Z,14.45
2022-10-14T20:16:13.166Z,14.56
2022-10-14T20:18:40.002Z,14.44
2022-10-14T20:21:07.467Z,14.52
2022-10-14T20:23:35.664Z,14.54
2022-10-14T20:26:03.234Z,14.40
2022-10-14T20:28:29.767Z,14.42
2022-10-14T20:30:57.388Z,14.55
2022-10-14T20:33:24.201Z,14.50
2022-10-14T20:36:08.426Z,14.63
2022-10-14T20:38:37.722Z,14.59
2022-10-14T20:41:12.425Z,14.57
2022-10-14T20:43:40.647Z,14.58
2022-10-14T20:46:07.190Z,14.54
2022-10-14T20:48:33.736Z,14.57
2022-10-14T20:51:00.139Z,14.58
2022-10-14T20:53:28.600Z,14.41
2022-10-14T20:55:55.027Z,14.55
2022-10-14T20:58:21.404Z,14.59
2022-10-14T21:00:47.790Z,14.64
2022-10-14T21:03:14.159Z,14.63
2022-10-14T21:05:40.537Z,14.55
2022-10-14T21:08:07.000Z,14.66
2022-10-14T21:10:33.371Z,14.67
2022-10-14T21:12:59.763Z,14.69
2022-10-14T21:15:26.937Z,14.67
2022-10-14T21:17:53.583Z,14.69
2022-10-14T21:20:20.117Z,14.72
2022-10-14T21:22:46.591Z,14.58
2022-10-14T21:25:13.099Z,14.69
2022-10-14T21:27:39.792Z,14.63
2022-10-14T21:30:06.927Z,14.70
2022-10-14T21:32:33.363Z,14.56
2022-10-14T21:34:59.922Z,14.70
2022-10-14T21:37:26.320Z,14.68
2022-10-14T21:39:52.711Z,14.56
2022-10-14T21:42:19.157Z,14.67
2022-10-14T21:44:45.623Z,14.71
2022-10-14T21:47:12.131Z,14.76
2022-10-14T21:49:38.599Z,14.69
2022-10-14T21:52:05.070Z,14.71
2022-10-14T21:54:31.538Z,14.69
2022-10-14T21:56:57.916Z,14.71
2022-10-14T21:59:24.381Z,14.71
2022-10-14T22:01:51.008Z,14.68
2022-10-14T22:04:17.375Z,14.69
2022-10-14T22:06:43.821Z,14.63
2022-10-14T22:09:10.379Z,14.57
2022-10-14T22:11:39.773Z,14.63
2022-10-14T22:14:10.861Z,14.67
2022-10-14T22:16:37.699Z,14.52
2022-10-14T22:19:06.335Z,14.61
2022-10-14T22:21:35.085Z,14.59
2022-10-14T22:24:01.881Z,14.53
2022-10-14T22:26:30.417Z,14.52
2022-10-14T22:29:17.238Z,14.48
2022-10-14T22:31:44.123Z,14.50
2022-10-14T22:34:12.898Z,14.46
2022-10-14T22:36:40.588Z,14.42
2022-10-14T22:39:11.035Z,14.44
2022-10-14T22:41:37.487Z,14.38
2022-10-14T22:44:05.372Z,14.45
2022-10-14T22:46:33.894Z,14.41
2022-10-14T22:49:01.788Z,14.37
2022-10-14T22:51:31.312Z,14.38
2022-10-14T22:53:58.183Z,14.41
2022-10-14T22:56:27.203Z,14.38
2022-10-14T22:59:01.544Z,14.42
2022-10-14T23:01:28.788Z,14.43
2022-10-14T23:03:56.591Z,14.48
2022-10-14T23:06:23.226Z,14.28
2022-10-14T23:08:49.729Z,14.23
2022-10-14T23:11:18.784Z,14.35
2022-10-14T23:13:45.840Z,14.27
2022-10-14T23:16:18.151Z,14.32
2022-10-14T23:18:45.470Z,14.38
2022-10-14T23:21:25.759Z,14.39
2022-10-14T23:23:53.523Z,14.42
2022-10-14T23:26:22.909Z,14.46
2022-10-14T23:28:51.080Z,14.41
2022-10-14T23:31:19.372Z,14.40
2022-10-14T23:33:45.934Z,14.43
2022-10-14T23:36:13.730Z,14.47
2022-10-14T23:38:40.760Z,14.41
2022-10-14T23:41:08.629Z,14.33
2022-10-14T23:43:35.367Z,14.13
2022-10-14T23:46:02.409Z,14.27
2022-10-14T23:48:29.095Z,14.33
2022-10-14T23:50:56.013Z,14.31
2022-10-14T23:53:22.527Z,14.27
2022-10-14T23:55:49.187Z,14.33
2022-10-14T23:58:15.731Z,14.06
